sensor_id;sensor_type;location;lat;lon;timestamp;P1;durP1;ratioP1;P2;durP2;ratioP2
9280;SDS011;4679;47.966;7.958;2022-09-29T05:55:43;2.93;;;1.20;;
9280;SDS011;4679;47.966;7.958;2022-09-29T05:57:48;2.97;;;1.43;;
9280;SDS011;4679;47.966;7.958;2022-09-29T05:59:50;1.00;;;1.00;;
9280;SDS011;4679;47.966;7.958;2022-09-29T06:01:51;1.67;;;1.57;;
9280;SDS011;4679;47.966;7.958;2022-09-29T06:03:53;1.40;;;1.30;;
9280;SDS011;4679;47.966;7.958;2022-09-29T06:05:55;4.07;;;1.30;;
9280;SDS011;4679;47.966;7.958;2022-09-29T06:07:57;1.50;;;1.40;;
9280;SDS011;4679;47.966;7.958;2022-09-29T06:10:03;1.80;;;1.40;;
9280;SDS011;4679;47.966;7.958;2022-09-29T06:12:06;2.00;;;1.47;;
9280;SDS011;4679;47.966;7.958;2022-09-29T06:14:08;1.50;;;1.40;;
9280;SDS011;4679;47.966;7.958;2022-09-29T06:16:10;1.50;;;1.40;;
9280;SDS011;4679;47.966;7.958;2022-09-29T06:18:12;1.47;;;1.37;;
9280;SDS011;4679;47.966;7.958;2022-09-29T06:20:14;2.20;;;1.53;;
9280;SDS011;4679;47.966;7.958;2022-09-29T06:22:16;1.53;;;1.40;;
9280;SDS011;4679;47.966;7.958;2022-09-29T06:24:17;1.50;;;1.40;;
9280;SDS011;4679;47.966;7.958;2022-09-29T06:26:19;2.43;;;1.40;;
9280;SDS011;4679;47.966;7.958;2022-09-29T06:28:24;1.00;;;1.00;;
9280;SDS011;4679;47.966;7.958;2022-09-29T06:30:26;1.50;;;1.30;;
9280;SDS011;4679;47.966;7.958;2022-09-29T06:32:27;1.70;;;1.60;;
9280;SDS011;4679;47.966;7.958;2022-09-29T06:34:29;1.20;;;1.10;;
9280;SDS011;4679;47.966;7.958;2022-09-29T06:36:32;1.20;;;0.97;;
9280;SDS011;4679;47.966;7.958;2022-09-29T06:39:05;1.70;;;0.90;;
9280;SDS011;4679;47.966;7.958;2022-09-29T06:41:08;2.40;;;1.53;;
9280;SDS011;4679;47.966;7.958;2022-09-29T06:43:09;1.40;;;1.00;;
9280;SDS011;4679;47.966;7.958;2022-09-29T06:45:13;1.20;;;1.00;;
9280;SDS011;4679;47.966;7.958;2022-09-29T06:47:15;1.10;;;1.00;;
9280;SDS011;4679;47.966;7.958;2022-09-29T06:49:17;1.30;;;1.20;;
9280;SDS011;4679;47.966;7.958;2022-09-29T06:51:19;1.20;;;1.10;;
9280;SDS011;4679;47.966;7.958;2022-09-29T06:53:21;1.17;;;1.10;;
9280;SDS011;4679;47.966;7.958;2022-09-29T06:55:23;1.50;;;1.40;;
9280;SDS011;4679;47.966;7.958;2022-09-29T06:57:25;1.30;;;1.20;;
9280;SDS011;4679;47.966;7.958;2022-09-29T06:59:26;2.67;;;1.13;;
9280;SDS011;4679;47.966;7.958;2022-09-29T07:01:29;1.20;;;1.10;;
9280;SDS011;4679;47.966;7.958;2022-09-29T07:03:31;1.50;;;1.40;;
9280;SDS011;4679;47.966;7.958;2022-09-29T07:05:34;1.73;;;1.10;;
9280;SDS011;4679;47.966;7.958;2022-09-29T07:07:36;3.40;;;1.27;;
9280;SDS011;4679;47.966;7.958;2022-09-29T07:09:37;1.73;;;1.33;;
9280;SDS011;4679;47.966;7.958;2022-09-29T07:11:39;3.90;;;1.63;;
9280;SDS011;4679;47.966;7.958;2022-09-29T07:13:40;1.70;;;1.60;;
9280;SDS011;4679;47.966;7.958;2022-09-29T07:15:42;1.67;;;1.57;;
9280;SDS011;4679;47.966;7.958;2022-09-29T07:17:45;1.50;;;1.40;;
9280;SDS011;4679;47.966;7.958;2022-09-29T07:19:51;1.73;;;1.03;;
9280;SDS011;4679;47.966;7.958;2022-09-29T07:21:54;2.30;;;1.33;;
9280;SDS011;4679;47.966;7.958;2022-09-29T07:23:55;0.90;;;0.90;;
9280;SDS011;4679;47.966;7.958;2022-09-29T07:25:57;1.00;;;1.00;;
9280;SDS011;4679;47.966;7.958;2022-09-29T07:27:59;1.23;;;1.00;;
9280;SDS011;4679;47.966;7.958;2022-09-29T07:30:01;1.60;;;1.20;;
9280;SDS011;4679;47.966;7.958;2022-09-29T07:32:03;1.07;;;1.07;;
9280;SDS011;4679;47.966;7.958;2022-09-29T07:34:06;1.47;;;0.80;;
9280;SDS011;4679;47.966;7.958;2022-09-29T07:36:07;0.77;;;0.77;;
9280;SDS011;4679;47.966;7.958;2022-09-29T07:38:09;2.67;;;0.97;;
9280;SDS011;4679;47.966;7.958;2022-09-29T07:40:11;1.80;;;0.73;;
9280;SDS011;4679;47.966;7.958;2022-09-29T07:42:13;1.00;;;0.87;;
9280;SDS011;4679;47.966;7.958;2022-09-29T07:44:17;1.27;;;1.00;;
9280;SDS011;4679;47.966;7.958;2022-09-29T07:46:18;1.07;;;1.07;;
9280;SDS011;4679;47.966;7.958;2022-09-29T07:48:21;1.00;;;0.90;;
9280;SDS011;4679;47.966;7.958;2022-09-29T07:50:24;0.87;;;0.80;;
9280;SDS011;4679;47.966;7.958;2022-09-29T07:52:26;1.40;;;1.30;;
9280;SDS011;4679;47.966;7.958;2022-09-29T07:54:27;1.27;;;1.17;;
9280;SDS011;4679;47.966;7.958;2022-09-29T07:57:39;1.73;;;1.17;;
9280;SDS011;4679;47.966;7.958;2022-09-29T07:59:41;1.20;;;1.10;;
9280;SDS011;4679;47.966;7.958;2022-09-29T08:01:43;1.93;;;0.93;;
9280;SDS011;4679;47.966;7.958;2022-09-29T08:03:48;1.40;;;1.30;;
9280;SDS011;4679;47.966;7.958;2022-09-29T08:05:51;1.30;;;1.20;;
9280;SDS011;4679;47.966;7.958;2022-09-29T08:07:53;1.40;;;1.30;;
9280;SDS011;4679;47.966;7.958;2022-09-29T08:10:01;1.20;;;1.10;;
9280;SDS011;4679;47.966;7.958;2022-09-29T08:12:03;1.43;;;1.20;;
9280;SDS011;4679;47.966;7.958;2022-09-29T08:14:06;2.03;;;0.93;;
9280;SDS011;4679;47.966;7.958;2022-09-29T08:16:09;1.83;;;1.10;;
9280;SDS011;4679;47.966;7.958;2022-09-29T08:18:12;1.03;;;1.03;;
9280;SDS011;4679;47.966;7.958;2022-09-29T08:20:14;1.30;;;1.20;;
9280;SDS011;4679;47.966;7.958;2022-09-29T08:22:15;2.13;;;1.10;;
9280;SDS011;4679;47.966;7.958;2022-09-29T08:24:17;1.10;;;1.00;;
9280;SDS011;4679;47.966;7.958;2022-09-29T08:26:19;1.30;;;1.20;;
9280;SDS011;4679;47.966;7.958;2022-09-29T08:28:22;1.63;;;1.20;;
9280;SDS011;4679;47.966;7.958;2022-09-29T08:30:25;1.53;;;1.20;;
9280;SDS011;4679;47.966;7.958;2022-09-29T08:32:27;2.33;;;2.13;;
9280;SDS011;4679;47.966;7.958;2022-09-29T08:34:28;1.50;;;1.30;;
9280;SDS011;4679;47.966;7.958;2022-09-29T08:36:30;1.50;;;1.23;;
9280;SDS011;4679;47.966;7.958;2022-09-29T08:38:32;2.30;;;1.37;;
9280;SDS011;4679;47.966;7.958;2022-09-29T08:40:34;1.10;;;1.00;;
9280;SDS011;4679;47.966;7.958;2022-09-29T08:42:38;2.10;;;1.00;;
9280;SDS011;4679;47.966;7.958;2022-09-29T08:44:49;2.83;;;1.20;;
9280;SDS011;4679;47.966;7.958;2022-09-29T08:46:57;1.20;;;1.00;;
9280;SDS011;4679;47.966;7.958;2022-09-29T08:49:02;1.00;;;1.00;;
9280;SDS011;4679;47.966;7.958;2022-09-29T08:51:10;0.73;;;0.70;;
9280;SDS011;4679;47.966;7.958;2022-09-29T08:53:23;0.73;;;0.70;;
9280;SDS011;4679;47.966;7.958;2022-09-29T08:55:38;1.37;;;0.70;;
9280;SDS011;4679;47.966;7.958;2022-09-29T08:57:45;0.83;;;0.50;;
9280;SDS011;4679;47.966;7.958;2022-09-29T08:59:51;0.67;;;0.67;;
9280;SDS011;4679;47.966;7.958;2022-09-29T09:02:02;0.60;;;0.60;;
9280;SDS011;4679;47.966;7.958;2022-09-29T09:04:27;0.40;;;0.40;;
9280;SDS011;4679;47.966;7.958;2022-09-29T09:06:49;0.70;;;0.33;;
9280;SDS011;4679;47.966;7.958;2022-09-29T09:09:05;0.30;;;0.30;;
9280;SDS011;4679;47.966;7.958;2022-09-29T09:11:21;0.50;;;0.50;;
9280;SDS011;4679;47.966;7.958;2022-09-29T09:13:33;0.40;;;0.40;;
9280;SDS011;4679;47.966;7.958;2022-09-29T09:16:01;0.40;;;0.40;;
9280;SDS011;4679;47.966;7.958;2022-09-29T09:18:29;1.03;;;0.60;;
9280;SDS011;4679;47.966;7.958;2022-09-29T09:20:43;1.90;;;0.63;;
9280;SDS011;4679;47.966;7.958;2022-09-29T09:22:51;0.70;;;0.70;;
9280;SDS011;4679;47.966;7.958;2022-09-29T09:24:57;0.83;;;0.77;;
9280;SDS011;4679;47.966;7.958;2022-09-29T09:27:01;1.53;;;0.67;;
9280;SDS011;4679;47.966;7.958;2022-09-29T09:29:05;1.27;;;0.77;;
9280;SDS011;4679;47.966;7.958;2022-09-29T09:31:15;1.00;;;1.00;;
9280;SDS011;4679;47.966;7.958;2022-09-29T09:33:22;0.57;;;0.57;;
9280;SDS011;4679;47.966;7.958;2022-09-29T09:35:33;1.17;;;0.50;;
9280;SDS011;4679;47.966;7.958;2022-09-29T09:37:41;0.60;;;0.60;;
9280;SDS011;4679;47.966;7.958;2022-09-29T09:39:46;0.40;;;0.40;;
9280;SDS011;4679;47.966;7.958;2022-09-29T09:41:52;0.50;;;0.50;;
9280;SDS011;4679;47.966;7.958;2022-09-29T09:44:00;1.00;;;1.00;;
9280;SDS011;4679;47.966;7.958;2022-09-29T09:46:07;0.63;;;0.50;;
9280;SDS011;4679;47.966;7.958;2022-09-29T09:48:16;0.60;;;0.60;;
9280;SDS011;4679;47.966;7.958;2022-09-29T09:50:23;0.77;;;0.70;;
9280;SDS011;4679;47.966;7.958;2022-09-29T09:52:28;0.53;;;0.53;;
9280;SDS011;4679;47.966;7.958;2022-09-29T09:54:34;1.70;;;0.60;;
9280;SDS011;4679;47.966;7.958;2022-09-29T09:56:51;1.57;;;0.60;;
9280;SDS011;4679;47.966;7.958;2022-09-29T09:59:12;1.20;;;1.10;;
9280;SDS011;4679;47.966;7.958;2022-09-29T10:01:24;0.80;;;0.80;;
9280;SDS011;4679;47.966;7.958;2022-09-29T10:03:27;1.20;;;0.60;;
9280;SDS011;4679;47.966;7.958;2022-09-29T10:05:31;0.97;;;0.70;;
9280;SDS011;4679;47.966;7.958;2022-09-29T10:07:39;1.57;;;1.27;;
9280;SDS011;4679;47.966;7.958;2022-09-29T10:09:41;0.97;;;0.70;;
9280;SDS011;4679;47.966;7.958;2022-09-29T10:11:43;0.50;;;0.50;;
9280;SDS011;4679;47.966;7.958;2022-09-29T10:13:45;0.80;;;0.80;;
9280;SDS011;4679;47.966;7.958;2022-09-29T10:15:49;0.80;;;0.80;;
9280;SDS011;4679;47.966;7.958;2022-09-29T10:17:58;0.73;;;0.70;;
9280;SDS011;4679;47.966;7.958;2022-09-29T10:20:06;1.60;;;0.70;;
9280;SDS011;4679;47.966;7.958;2022-09-29T10:22:11;1.03;;;0.70;;
9280;SDS011;4679;47.966;7.958;2022-09-29T10:24:20;1.53;;;0.70;;
9280;SDS011;4679;47.966;7.958;2022-09-29T10:26:24;1.07;;;0.70;;
9280;SDS011;4679;47.966;7.958;2022-09-29T10:28:35;1.33;;;0.60;;
9280;SDS011;4679;47.966;7.958;2022-09-29T10:30:39;0.73;;;0.60;;
9280;SDS011;4679;47.966;7.958;2022-09-29T10:32:41;2.70;;;0.80;;
9280;SDS011;4679;47.966;7.958;2022-09-29T10:34:45;1.07;;;0.50;;
9280;SDS011;4679;47.966;7.958;2022-09-29T10:36:50;0.47;;;0.47;;
9280;SDS011;4679;47.966;7.958;2022-09-29T10:38:54;0.67;;;0.67;;
9280;SDS011;4679;47.966;7.958;2022-09-29T10:40:58;0.60;;;0.40;;
9280;SDS011;4679;47.966;7.958;2022-09-29T10:43:16;0.50;;;0.50;;
9280;SDS011;4679;47.966;7.958;2022-09-29T10:45:24;0.97;;;0.60;;
9280;SDS011;4679;47.966;7.958;2022-09-29T10:47:26;1.03;;;0.60;;
9280;SDS011;4679;47.966;7.958;2022-09-29T10:49:28;0.90;;;0.70;;
9280;SDS011;4679;47.966;7.958;2022-09-29T10:51:30;0.60;;;0.60;;
9280;SDS011;4679;47.966;7.958;2022-09-29T10:53:33;0.60;;;0.60;;
9280;SDS011;4679;47.966;7.958;2022-09-29T10:55:46;0.67;;;0.60;;
9280;SDS011;4679;47.966;7.958;2022-09-29T10:57:53;1.70;;;0.83;;
9280;SDS011;4679;47.966;7.958;2022-09-29T10:59:57;1.33;;;1.23;;
9280;SDS011;4679;47.966;7.958;2022-09-29T11:02:00;0.63;;;0.63;;
9280;SDS011;4679;47.966;7.958;2022-09-29T11:04:03;0.70;;;0.70;;
9280;SDS011;4679;47.966;7.958;2022-09-29T11:06:08;0.57;;;0.57;;
9280;SDS011;4679;47.966;7.958;2022-09-29T11:08:12;1.67;;;0.80;;
9280;SDS011;4679;47.966;7.958;2022-09-29T11:10:26;0.60;;;0.60;;
9280;SDS011;4679;47.966;7.958;2022-09-29T11:12:32;1.33;;;0.60;;
9280;SDS011;4679;47.966;7.958;2022-09-29T11:14:42;0.47;;;0.40;;
9280;SDS011;4679;47.966;7.958;2022-09-29T11:16:51;1.33;;;0.50;;
9280;SDS011;4679;47.966;7.958;2022-09-29T11:18:54;0.70;;;0.40;;
9280;SDS011;4679;47.966;7.958;2022-09-29T11:21:04;1.03;;;0.50;;
9280;SDS011;4679;47.966;7.958;2022-09-29T11:23:35;0.30;;;0.30;;
9280;SDS011;4679;47.966;7.958;2022-09-29T11:25:56;1.60;;;0.30;;
9280;SDS011;4679;47.966;7.958;2022-09-29T11:28:16;0.40;;;0.40;;
9280;SDS011;4679;47.966;7.958;2022-09-29T11:30:38;0.37;;;0.37;;
9280;SDS011;4679;47.966;7.958;2022-09-29T11:32:56;1.47;;;0.50;;
9280;SDS011;4679;47.966;7.958;2022-09-29T11:35:18;1.40;;;0.30;;
9280;SDS011;4679;47.966;7.958;2022-09-29T11:37:39;0.50;;;0.50;;
9280;SDS011;4679;47.966;7.958;2022-09-29T11:39:51;2.37;;;0.60;;
9280;SDS011;4679;47.966;7.958;2022-09-29T11:42:05;0.60;;;0.60;;
9280;SDS011;4679;47.966;7.958;2022-09-29T11:44:23;0.73;;;0.70;;
9280;SDS011;4679;47.966;7.958;2022-09-29T11:46:44;1.07;;;0.97;;
9280;SDS011;4679;47.966;7.958;2022-09-29T11:49:05;2.93;;;0.90;;
9280;SDS011;4679;47.966;7.958;2022-09-29T11:51:18;0.90;;;0.90;;
9280;SDS011;4679;47.966;7.958;2022-09-29T11:53:30;4.43;;;0.90;;
9280;SDS011;4679;47.966;7.958;2022-09-29T11:55:52;1.30;;;0.97;;
9280;SDS011;4679;47.966;7.958;2022-09-29T11:58:26;0.90;;;0.90;;
9280;SDS011;4679;47.966;7.958;2022-09-29T12:00:53;0.70;;;0.70;;
9280;SDS011;4679;47.966;7.958;2022-09-29T12:03:11;1.00;;;0.63;;
9280;SDS011;4679;47.966;7.958;2022-09-29T12:05:21;1.00;;;0.90;;
9280;SDS011;4679;47.966;7.958;2022-09-29T12:07:30;1.57;;;0.60;;
9280;SDS011;4679;47.966;7.958;2022-09-29T12:09:46;0.70;;;0.50;;
9280;SDS011;4679;47.966;7.958;2022-09-29T12:11:59;0.57;;;0.50;;
9280;SDS011;4679;47.966;7.958;2022-09-29T12:14:09;0.97;;;0.40;;
9280;SDS011;4679;47.966;7.958;2022-09-29T12:16:16;0.93;;;0.50;;
9280;SDS011;4679;47.966;7.958;2022-09-29T12:18:23;0.50;;;0.40;;
9280;SDS011;4679;47.966;7.958;2022-09-29T12:20:29;1.80;;;0.50;;
9280;SDS011;4679;47.966;7.958;2022-09-29T12:22:34;1.50;;;0.60;;
9280;SDS011;4679;47.966;7.958;2022-09-29T12:24:36;0.93;;;0.53;;
9280;SDS011;4679;47.966;7.958;2022-09-29T12:26:41;0.40;;;0.40;;
9280;SDS011;4679;47.966;7.958;2022-09-29T12:28:47;0.50;;;0.50;;
9280;SDS011;4679;47.966;7.958;2022-09-29T12:30:54;1.10;;;0.60;;
9280;SDS011;4679;47.966;7.958;2022-09-29T12:33:00;0.60;;;0.60;;
9280;SDS011;4679;47.966;7.958;2022-09-29T12:35:10;0.97;;;0.47;;
9280;SDS011;4679;47.966;7.958;2022-09-29T12:37:17;1.23;;;0.70;;
9280;SDS011;4679;47.966;7.958;2022-09-29T12:39:33;1.60;;;0.70;;
9280;SDS011;4679;47.966;7.958;2022-09-29T12:41:43;0.80;;;0.70;;
9280;SDS011;4679;47.966;7.958;2022-09-29T12:43:50;0.50;;;0.50;;
9280;SDS011;4679;47.966;7.958;2022-09-29T12:45:59;0.70;;;0.60;;
9280;SDS011;4679;47.966;7.958;2022-09-29T12:48:14;0.80;;;0.53;;
9280;SDS011;4679;47.966;7.958;2022-09-29T12:50:25;0.60;;;0.60;;
9280;SDS011;4679;47.966;7.958;2022-09-29T12:52:32;0.60;;;0.60;;
9280;SDS011;4679;47.966;7.958;2022-09-29T12:54:42;0.67;;;0.67;;
9280;SDS011;4679;47.966;7.958;2022-09-29T12:56:52;0.50;;;0.50;;
9280;SDS011;4679;47.966;7.958;2022-09-29T12:58:58;2.27;;;0.60;;
9280;SDS011;4679;47.966;7.958;2022-09-29T13:01:08;1.10;;;0.60;;
9280;SDS011;4679;47.966;7.958;2022-09-29T13:03:26;0.60;;;0.60;;
9280;SDS011;4679;47.966;7.958;2022-09-29T13:06:08;2.07;;;0.70;;
9280;SDS011;4679;47.966;7.958;2022-09-29T13:08:26;1.13;;;0.57;;
9280;SDS011;4679;47.966;7.958;2022-09-29T13:10:49;2.57;;;0.70;;
9280;SDS011;4679;47.966;7.958;2022-09-29T13:13:07;0.77;;;0.70;;
9280;SDS011;4679;47.966;7.958;2022-09-29T13:15:30;1.80;;;0.60;;
9280;SDS011;4679;47.966;7.958;2022-09-29T13:17:45;1.63;;;0.70;;
9280;SDS011;4679;47.966;7.958;2022-09-29T13:20:22;0.43;;;0.43;;
9280;SDS011;4679;47.966;7.958;2022-09-29T13:25:09;1.97;;;0.50;;
9280;SDS011;4679;47.966;7.958;2022-09-29T13:27:25;1.23;;;0.50;;
9280;SDS011;4679;47.966;7.958;2022-09-29T13:29:31;1.17;;;0.50;;
9280;SDS011;4679;47.966;7.958;2022-09-29T13:31:45;0.60;;;0.60;;
9280;SDS011;4679;47.966;7.958;2022-09-29T13:33:47;0.63;;;0.60;;
9280;SDS011;4679;47.966;7.958;2022-09-29T13:35:52;0.70;;;0.70;;
9280;SDS011;4679;47.966;7.958;2022-09-29T13:37:55;1.10;;;1.00;;
9280;SDS011;4679;47.966;7.958;2022-09-29T13:40:04;1.20;;;1.07;;
9280;SDS011;4679;47.966;7.958;2022-09-29T13:42:24;0.80;;;0.80;;
9280;SDS011;4679;47.966;7.958;2022-09-29T13:44:42;1.97;;;0.70;;
9280;SDS011;4679;47.966;7.958;2022-09-29T13:46:44;1.23;;;0.60;;
9280;SDS011;4679;47.966;7.958;2022-09-29T13:48:46;0.87;;;0.70;;
9280;SDS011;4679;47.966;7.958;2022-09-29T13:50:53;1.20;;;0.90;;
9280;SDS011;4679;47.966;7.958;2022-09-29T13:53:09;1.80;;;0.67;;
9280;SDS011;4679;47.966;7.958;2022-09-29T13:57:52;1.33;;;0.60;;
9280;SDS011;4679;47.966;7.958;2022-09-29T14:02:26;0.93;;;0.70;;
9280;SDS011;4679;47.966;7.958;2022-09-29T14:04:33;0.83;;;0.70;;
9280;SDS011;4679;47.966;7.958;2022-09-29T14:06:42;0.83;;;0.83;;
9280;SDS011;4679;47.966;7.958;2022-09-29T14:08:47;1.87;;;0.87;;
9280;SDS011;4679;47.966;7.958;2022-09-29T14:10:57;1.13;;;0.80;;
9280;SDS011;4679;47.966;7.958;2022-09-29T14:13:02;1.03;;;0.90;;
9280;SDS011;4679;47.966;7.958;2022-09-29T14:15:09;1.33;;;0.80;;
9280;SDS011;4679;47.966;7.958;2022-09-29T14:17:18;0.77;;;0.77;;
9280;SDS011;4679;47.966;7.958;2022-09-29T14:19:30;0.87;;;0.87;;
9280;SDS011;4679;47.966;7.958;2022-09-29T14:21:44;2.03;;;0.83;;
9280;SDS011;4679;47.966;7.958;2022-09-29T14:23:51;1.80;;;0.90;;
9280;SDS011;4679;47.966;7.958;2022-09-29T14:25:55;1.40;;;0.83;;
9280;SDS011;4679;47.966;7.958;2022-09-29T14:27:58;1.73;;;1.10;;
9280;SDS011;4679;47.966;7.958;2022-09-29T14:30:11;1.50;;;1.33;;
9280;SDS011;4679;47.966;7.958;2022-09-29T14:32:17;1.50;;;0.93;;
9280;SDS011;4679;47.966;7.958;2022-09-29T14:34:21;1.77;;;1.00;;
9280;SDS011;4679;47.966;7.958;2022-09-29T14:36:26;1.53;;;0.83;;
9280;SDS011;4679;47.966;7.958;2022-09-29T14:38:32;0.90;;;0.80;;
9280;SDS011;4679;47.966;7.958;2022-09-29T14:40:37;2.30;;;0.90;;
9280;SDS011;4679;47.966;7.958;2022-09-29T14:42:40;0.80;;;0.80;;
9280;SDS011;4679;47.966;7.958;2022-09-29T14:44:42;1.83;;;0.80;;
9280;SDS011;4679;47.966;7.958;2022-09-29T14:47:22;1.47;;;0.80;;
9280;SDS011;4679;47.966;7.958;2022-09-29T14:50:01;2.53;;;1.97;;
9280;SDS011;4679;47.966;7.958;2022-09-29T14:52:41;1.20;;;1.10;;
9280;SDS011;4679;47.966;7.958;2022-09-29T14:54:53;1.23;;;1.10;;
9280;SDS011;4679;47.966;7.958;2022-09-29T14:57:06;1.00;;;0.90;;
9280;SDS011;4679;47.966;7.958;2022-09-29T14:59:22;2.33;;;0.83;;
9280;SDS011;4679;47.966;7.958;2022-09-29T15:01:34;1.37;;;0.80;;
9280;SDS011;4679;47.966;7.958;2022-09-29T15:03:40;1.33;;;0.70;;
9280;SDS011;4679;47.966;7.958;2022-09-29T15:05:46;0.70;;;0.70;;
9280;SDS011;4679;47.966;7.958;2022-09-29T15:07:47;1.27;;;0.97;;
9280;SDS011;4679;47.966;7.958;2022-09-29T15:09:50;0.73;;;0.70;;
9280;SDS011;4679;47.966;7.958;2022-09-29T15:11:53;1.90;;;0.67;;
9280;SDS011;4679;47.966;7.958;2022-09-29T15:13:57;2.00;;;0.80;;
9280;SDS011;4679;47.966;7.958;2022-09-29T15:16:03;1.10;;;1.10;;
9280;SDS011;4679;47.966;7.958;2022-09-29T15:18:15;1.23;;;1.13;;
9280;SDS011;4679;47.966;7.958;2022-09-29T15:20:31;0.77;;;0.77;;
9280;SDS011;4679;47.966;7.958;2022-09-29T15:22:41;0.80;;;0.70;;
9280;SDS011;4679;47.966;7.958;2022-09-29T15:27:28;0.90;;;0.90;;
9280;SDS011;4679;47.966;7.958;2022-09-29T15:29:33;2.10;;;0.70;;
9280;SDS011;4679;47.966;7.958;2022-09-29T15:31:36;1.53;;;0.80;;
9280;SDS011;4679;47.966;7.958;2022-09-29T15:33:38;1.50;;;0.40;;
9280;SDS011;4679;47.966;7.958;2022-09-29T15:35:42;1.53;;;0.93;;
9280;SDS011;4679;47.966;7.958;2022-09-29T15:37:54;0.60;;;0.60;;
9280;SDS011;4679;47.966;7.958;2022-09-29T15:39:59;0.93;;;0.87;;
9280;SDS011;4679;47.966;7.958;2022-09-29T15:42:09;1.10;;;1.00;;
9280;SDS011;4679;47.966;7.958;2022-09-29T15:44:15;1.27;;;1.17;;
9280;SDS011;4679;47.966;7.958;2022-09-29T15:46:19;2.50;;;1.40;;
9280;SDS011;4679;47.966;7.958;2022-09-29T15:48:24;3.23;;;1.80;;
9280;SDS011;4679;47.966;7.958;2022-09-29T15:50:26;1.53;;;0.77;;
9280;SDS011;4679;47.966;7.958;2022-09-29T15:52:31;0.83;;;0.63;;
9280;SDS011;4679;47.966;7.958;2022-09-29T15:54:35;1.23;;;0.60;;
9280;SDS011;4679;47.966;7.958;2022-09-29T15:56:43;1.43;;;0.70;;
9280;SDS011;4679;47.966;7.958;2022-09-29T15:59:07;0.60;;;0.60;;
9280;SDS011;4679;47.966;7.958;2022-09-29T16:01:18;2.20;;;0.50;;
9280;SDS011;4679;47.966;7.958;2022-09-29T16:03:26;2.20;;;0.97;;
9280;SDS011;4679;47.966;7.958;2022-09-29T16:05:33;1.00;;;0.50;;
9280;SDS011;4679;47.966;7.958;2022-09-29T16:07:37;0.50;;;0.50;;
9280;SDS011;4679;47.966;7.958;2022-09-29T16:09:48;0.50;;;0.50;;
9280;SDS011;4679;47.966;7.958;2022-09-29T16:11:51;2.67;;;0.60;;
9280;SDS011;4679;47.966;7.958;2022-09-29T16:13:56;0.50;;;0.50;;
9280;SDS011;4679;47.966;7.958;2022-09-29T16:16:02;0.83;;;0.60;;
9280;SDS011;4679;47.966;7.958;2022-09-29T16:18:07;0.50;;;0.50;;
9280;SDS011;4679;47.966;7.958;2022-09-29T16:20:13;0.50;;;0.50;;
9280;SDS011;4679;47.966;7.958;2022-09-29T16:22:21;1.80;;;0.67;;
9280;SDS011;4679;47.966;7.958;2022-09-29T16:24:26;0.83;;;0.80;;
9280;SDS011;4679;47.966;7.958;2022-09-29T16:26:33;1.73;;;0.60;;
9280;SDS011;4679;47.966;7.958;2022-09-29T16:28:36;0.80;;;0.80;;
9280;SDS011;4679;47.966;7.958;2022-09-29T16:30:39;2.50;;;1.20;;
9280;SDS011;4679;47.966;7.958;2022-09-29T16:32:42;0.80;;;0.80;;
9280;SDS011;4679;47.966;7.958;2022-09-29T16:34:44;3.30;;;1.10;;
9280;SDS011;4679;47.966;7.958;2022-09-29T16:36:47;2.30;;;1.23;;
9280;SDS011;4679;47.966;7.958;2022-09-29T16:38:51;1.20;;;0.90;;
9280;SDS011;4679;47.966;7.958;2022-09-29T16:40:54;1.00;;;1.00;;
9280;SDS011;4679;47.966;7.958;2022-09-29T16:42:56;1.30;;;0.90;;
9280;SDS011;4679;47.966;7.958;2022-09-29T16:45:00;1.10;;;0.93;;
9280;SDS011;4679;47.966;7.958;2022-09-29T16:47:02;1.97;;;1.10;;
9280;SDS011;4679;47.966;7.958;2022-09-29T16:49:13;1.00;;;0.83;;
9280;SDS011;4679;47.966;7.958;2022-09-29T16:51:18;0.77;;;0.77;;
9280;SDS011;4679;47.966;7.958;2022-09-29T16:53:24;1.73;;;0.67;;
9280;SDS011;4679;47.966;7.958;2022-09-29T16:55:28;1.90;;;1.27;;
9280;SDS011;4679;47.966;7.958;2022-09-29T16:57:31;3.47;;;1.30;;
9280;SDS011;4679;47.966;7.958;2022-09-29T16:59:33;6.67;;;2.50;;
9280;SDS011;4679;47.966;7.958;2022-09-29T17:01:35;2.00;;;1.90;;
9280;SDS011;4679;47.966;7.958;2022-09-29T17:03:37;1.83;;;1.57;;
9280;SDS011;4679;47.966;7.958;2022-09-29T17:05:40;1.63;;;1.00;;
9280;SDS011;4679;47.966;7.958;2022-09-29T17:07:46;0.90;;;0.90;;
9280;SDS011;4679;47.966;7.958;2022-09-29T17:09:52;1.30;;;0.80;;
9280;SDS011;4679;47.966;7.958;2022-09-29T17:11:55;1.23;;;0.80;;
9280;SDS011;4679;47.966;7.958;2022-09-29T17:13:59;0.90;;;0.90;;
9280;SDS011;4679;47.966;7.958;2022-09-29T17:16:00;3.00;;;1.10;;
9280;SDS011;4679;47.966;7.958;2022-09-29T17:18:07;1.37;;;0.97;;
9280;SDS011;4679;47.966;7.958;2022-09-29T17:20:12;1.33;;;0.90;;
9280;SDS011;4679;47.966;7.958;2022-09-29T17:22:19;1.03;;;0.93;;
9280;SDS011;4679;47.966;7.958;2022-09-29T17:24:26;2.10;;;1.07;;
9280;SDS011;4679;47.966;7.958;2022-09-29T17:26:33;1.20;;;1.20;;
9280;SDS011;4679;47.966;7.958;2022-09-29T17:28:55;1.30;;;1.20;;
9280;SDS011;4679;47.966;7.958;2022-09-29T17:30:57;2.90;;;1.87;;
9280;SDS011;4679;47.966;7.958;2022-09-29T17:32:58;1.77;;;1.30;;
9280;SDS011;4679;47.966;7.958;2022-09-29T17:35:00;1.40;;;1.30;;
9280;SDS011;4679;47.966;7.958;2022-09-29T17:37:02;1.90;;;1.20;;
9280;SDS011;4679;47.966;7.958;2022-09-29T17:39:04;1.57;;;1.20;;
9280;SDS011;4679;47.966;7.958;2022-09-29T17:41:06;2.33;;;1.03;;
9280;SDS011;4679;47.966;7.958;2022-09-29T17:43:10;0.90;;;0.90;;
9280;SDS011;4679;47.966;7.958;2022-09-29T17:45:12;0.83;;;0.73;;
9280;SDS011;4679;47.966;7.958;2022-09-29T17:47:15;1.10;;;1.00;;
9280;SDS011;4679;47.966;7.958;2022-09-29T17:49:17;1.37;;;1.10;;
9280;SDS011;4679;47.966;7.958;2022-09-29T17:51:19;1.40;;;1.00;;
9280;SDS011;4679;47.966;7.958;2022-09-29T17:53:21;3.87;;;1.40;;
9280;SDS011;4679;47.966;7.958;2022-09-29T17:55:23;1.63;;;1.10;;
9280;SDS011;4679;47.966;7.958;2022-09-29T17:57:26;1.50;;;1.00;;
9280;SDS011;4679;47.966;7.958;2022-09-29T17:59:32;2.83;;;1.10;;
9280;SDS011;4679;47.966;7.958;2022-09-29T18:01:39;2.13;;;1.87;;
9280;SDS011;4679;47.966;7.958;2022-09-29T18:03:41;1.00;;;1.00;;
9280;SDS011;4679;47.966;7.958;2022-09-29T18:05:44;1.80;;;1.00;;
9280;SDS011;4679;47.966;7.958;2022-09-29T18:07:47;0.60;;;0.60;;
9280;SDS011;4679;47.966;7.958;2022-09-29T18:09:49;0.70;;;0.70;;
9280;SDS011;4679;47.966;7.958;2022-09-29T18:11:51;3.53;;;1.23;;
9280;SDS011;4679;47.966;7.958;2022-09-29T18:13:53;1.33;;;0.90;;
9280;SDS011;4679;47.966;7.958;2022-09-29T18:15:56;4.57;;;0.97;;
9280;SDS011;4679;47.966;7.958;2022-09-29T18:18:00;0.80;;;0.80;;
9280;SDS011;4679;47.966;7.958;2022-09-29T18:20:09;1.30;;;1.10;;
9280;SDS011;4679;47.966;7.958;2022-09-29T18:22:13;2.40;;;1.20;;
9280;SDS011;4679;47.966;7.958;2022-09-29T18:24:16;1.83;;;1.10;;
9280;SDS011;4679;47.966;7.958;2022-09-29T18:26:18;1.00;;;1.00;;
9280;SDS011;4679;47.966;7.958;2022-09-29T18:28:20;1.30;;;1.20;;
9280;SDS011;4679;47.966;7.958;2022-09-29T18:30:22;1.63;;;1.33;;
9280;SDS011;4679;47.966;7.958;2022-09-29T18:32:27;1.40;;;1.30;;
9280;SDS011;4679;47.966;7.958;2022-09-29T18:34:29;1.50;;;1.40;;
9280;SDS011;4679;47.966;7.958;2022-09-29T18:36:34;2.47;;;1.27;;
9280;SDS011;4679;47.966;7.958;2022-09-29T18:38:36;3.70;;;1.20;;
9280;SDS011;4679;47.966;7.958;2022-09-29T18:40:38;2.13;;;1.50;;
9280;SDS011;4679;47.966;7.958;2022-09-29T18:42:41;1.40;;;1.30;;
9280;SDS011;4679;47.966;7.958;2022-09-29T18:44:44;1.57;;;1.20;;
9280;SDS011;4679;47.966;7.958;2022-09-29T18:46:45;1.70;;;1.20;;
9280;SDS011;4679;47.966;7.958;2022-09-29T18:48:48;2.43;;;1.20;;
9280;SDS011;4679;47.966;7.958;2022-09-29T18:50:51;1.40;;;1.00;;
9280;SDS011;4679;47.966;7.958;2022-09-29T18:52:55;3.57;;;1.10;;
9280;SDS011;4679;47.966;7.958;2022-09-29T18:54:58;0.83;;;0.83;;
9280;SDS011;4679;47.966;7.958;2022-09-29T18:57:00;1.20;;;1.10;;
9280;SDS011;4679;47.966;7.958;2022-09-29T18:59:01;1.77;;;1.67;;
9280;SDS011;4679;47.966;7.958;2022-09-29T19:01:05;3.07;;;1.80;;
9280;SDS011;4679;47.966;7.958;2022-09-29T19:03:06;2.43;;;2.00;;
9280;SDS011;4679;47.966;7.958;2022-09-29T19:05:10;2.43;;;2.23;;
9280;SDS011;4679;47.966;7.958;2022-09-29T19:07:16;2.13;;;2.03;;
9280;SDS011;4679;47.966;7.958;2022-09-29T19:09:18;2.10;;;1.60;;
9280;SDS011;4679;47.966;7.958;2022-09-29T19:11:21;2.50;;;1.80;;
9280;SDS011;4679;47.966;7.958;2022-09-29T19:13:24;1.50;;;1.40;;
9280;SDS011;4679;47.966;7.958;2022-09-29T19:15:27;0.93;;;0.93;;